Time;durP1;ratioP1;P1;durP2;ratioP2;P2;SDS_P1;SDS_P2;PMS_P1;PMS_P2;Temp;Humidity;BMP_temperature;BMP_pressure;BME280_temperature;BME280_humidity;BME280_pressure;Samples;Min_cycle;Max_cycle;Signal;HPM_P1;HPM_P2
2023/05/31 00:01:49;;;;;;;9.25;4.93;;;;;;;;;;10161445;28;20393;-67
2023/05/31 00:06:45;;;;;;;6.93;4.95;;;;;;;;;;10157928;28;20702;-69
2023/05/31 00:11:42;;;;;;;7.90;5.00;;;;;;;;;;10158171;28;20060;-69
2023/05/31 00:16:38;;;;;;;8.40;4.97;;;;;;;;;;10150979;28;20531;-66
2023/05/31 00:21:37;;;;;;;7.65;5.22;;;;;;;;;;10159916;28;20049;-65
2023/05/31 00:26:33;;;;;;;8.80;5.05;;;;;;;;;;10148658;28;20074;-66
2023/05/31 00:31:30;;;;;;;8.48;5.72;;;;;;;;;;10152636;28;20050;-65
2023/05/31 00:36:26;;;;;;;8.80;6.35;;;;;;;;;;10154240;28;20523;-67
2023/05/31 00:41:23;;;;;;;10.70;5.72;;;;;;;;;;10157569;28;20042;-66
2023/05/31 00:46:25;;;;;;;12.35;5.72;;;;;;;;;;10181249;28;20092;-65
2023/05/31 00:51:21;;;;;;;9.82;5.93;;;;;;;;;;10172375;28;20706;-66
2023/05/31 00:56:18;;;;;;;8.07;5.93;;;;;;;;;;10148918;28;20512;-67
2023/05/31 01:01:15;;;;;;;11.10;5.90;;;;;;;;;;10148892;28;20042;-67
2023/05/31 01:06:11;;;;;;;6.97;5.75;;;;;;;;;;10163871;28;20185;-67
2023/05/31 01:11:21;;;;;;;10.95;6.85;;;;;;;;;;10170204;28;20038;-68
2023/05/31 01:16:30;;;;;;;8.88;7.10;;;;;;;;;;10161785;28;20053;-68
2023/05/31 01:21:32;;;;;;;13.85;7.47;;;;;;;;;;10159425;28;20077;-68
2023/05/31 01:26:42;;;;;;;8.68;7.22;;;;;;;;;;10161900;28;20550;-68
2023/05/31 01:31:39;;;;;;;9.73;7.95;;;;;;;;;;10160401;28;20046;-68
2023/05/31 01:36:36;;;;;;;11.77;7.68;;;;;;;;;;10158605;28;20518;-68
2023/05/31 01:41:36;;;;;;;10.27;8.10;;;;;;;;;;10168311;28;20054;-68
2023/05/31 01:46:32;;;;;;;9.60;7.30;;;;;;;;;;10165304;28;20528;-68
2023/05/31 01:51:30;;;;;;;9.38;7.72;;;;;;;;;;10164083;28;20046;-69
2023/05/31 01:56:28;;;;;;;10.30;8.32;;;;;;;;;;10162918;28;20054;-68
2023/05/31 02:01:25;;;;;;;11.02;7.95;;;;;;;;;;10159002;28;20069;-68
2023/05/31 02:06:22;;;;;;;8.98;7.82;;;;;;;;;;10167299;28;20046;-67
2023/05/31 02:11:18;;;;;;;14.13;8.35;;;;;;;;;;10161478;28;20042;-67
2023/05/31 02:16:16;;;;;;;11.02;7.55;;;;;;;;;;10170761;28;20058;-67
2023/05/31 02:21:12;;;;;;;10.68;7.93;;;;;;;;;;10187670;28;20053;-67
2023/05/31 02:26:09;;;;;;;13.57;8.60;;;;;;;;;;10168227;28;20507;-69
2023/05/31 02:31:05;;;;;;;9.05;7.80;;;;;;;;;;10160718;28;20048;-68
2023/05/31 02:36:02;;;;;;;10.05;8.20;;;;;;;;;;10172174;28;20045;-68
2023/05/31 02:40:59;;;;;;;9.48;7.90;;;;;;;;;;10168680;28;20054;-68
2023/05/31 02:45:56;;;;;;;8.95;8.10;;;;;;;;;;10177664;28;20557;-68
2023/05/31 02:50:52;;;;;;;10.35;9.25;;;;;;;;;;10181199;28;20042;-67
2023/05/31 02:55:49;;;;;;;10.27;8.60;;;;;;;;;;10169844;28;20093;-67
2023/05/31 03:00:46;;;;;;;11.27;8.43;;;;;;;;;;10163856;28;20706;-67
2023/05/31 03:05:43;;;;;;;10.93;8.93;;;;;;;;;;10170627;28;20067;-67
2023/05/31 03:10:40;;;;;;;8.63;7.72;;;;;;;;;;10162220;28;20544;-66
2023/05/31 03:15:37;;;;;;;13.63;9.55;;;;;;;;;;10153697;28;20073;-66
2023/05/31 03:20:34;;;;;;;10.38;8.63;;;;;;;;;;10168182;28;20097;-66
2023/05/31 03:25:31;;;;;;;8.90;7.85;;;;;;;;;;10170215;28;20042;-68
2023/05/31 03:30:28;;;;;;;13.32;8.20;;;;;;;;;;10162800;28;20518;-67
2023/05/31 03:35:25;;;;;;;10.63;9.07;;;;;;;;;;10158095;28;20050;-73
2023/05/31 03:40:21;;;;;;;9.73;8.45;;;;;;;;;;10161581;28;20141;-74
2023/05/31 03:45:21;;;;;;;9.27;8.35;;;;;;;;;;10162756;28;20129;-74
2023/05/31 03:50:18;;;;;;;11.43;8.82;;;;;;;;;;10163780;28;20074;-74
2023/05/31 03:55:15;;;;;;;12.88;8.95;;;;;;;;;;10160756;28;20050;-74
2023/05/31 04:00:11;;;;;;;17.17;10.05;;;;;;;;;;10155203;28;20046;-74
2023/05/31 04:05:08;;;;;;;14.05;10.27;;;;;;;;;;10157322;28;20070;-73
2023/05/31 04:10:05;;;;;;;13.98;9.20;;;;;;;;;;10158937;28;20050;-73
2023/05/31 04:15:02;;;;;;;13.57;9.45;;;;;;;;;;10158574;28;20039;-73
2023/05/31 04:19:58;;;;;;;12.05;9.35;;;;;;;;;;10160180;28;20062;-74
2023/05/31 04:24:55;;;;;;;11.57;9.85;;;;;;;;;;10159272;28;20050;-74
2023/05/31 04:29:51;;;;;;;10.75;9.18;;;;;;;;;;10178221;28;20108;-74
2023/05/31 04:34:48;;;;;;;13.13;10.13;;;;;;;;;;10170136;28;20504;-74
2023/05/31 04:39:45;;;;;;;11.43;10.02;;;;;;;;;;10162071;28;20038;-74
2023/05/31 04:44:42;;;;;;;14.85;11.00;;;;;;;;;;10166347;28;20447;-74
2023/05/31 04:49:38;;;;;;;12.70;11.43;;;;;;;;;;10165283;28;20423;-74
2023/05/31 04:54:50;;;;;;;14.93;12.32;;;;;;;;;;10171320;28;20042;-74
2023/05/31 04:59:46;;;;;;;12.82;10.95;;;;;;;;;;10166465;28;20209;-75
2023/05/31 05:04:42;;;;;;;13.20;11.80;;;;;;;;;;10156054;28;20101;-74
2023/05/31 05:09:39;;;;;;;14.68;13.05;;;;;;;;;;10153492;28;20050;-74
2023/05/31 05:14:36;;;;;;;13.43;12.07;;;;;;;;;;10167322;28;20038;-74
2023/05/31 05:19:32;;;;;;;12.95;11.65;;;;;;;;;;10158987;28;20077;-74
2023/05/31 05:24:28;;;;;;;13.27;11.70;;;;;;;;;;10162702;28;20092;-74
2023/05/31 05:29:24;;;;;;;15.77;12.20;;;;;;;;;;10170356;28;20061;-74
2023/05/31 05:34:21;;;;;;;13.32;11.80;;;;;;;;;;10168716;28;20042;-74
2023/05/31 05:39:17;;;;;;;12.30;11.05;;;;;;;;;;10164685;28;20047;-74
2023/05/31 05:44:13;;;;;;;13.63;11.88;;;;;;;;;;10169728;28;20517;-74
2023/05/31 05:49:11;;;;;;;15.27;12.05;;;;;;;;;;10164163;28;20144;-74
2023/05/31 05:54:07;;;;;;;14.70;11.60;;;;;;;;;;10180256;28;20050;-74
2023/05/31 05:59:03;;;;;;;13.00;11.10;;;;;;;;;;10173413;28;20057;-74
2023/05/31 06:04:00;;;;;;;16.20;13.00;;;;;;;;;;10167500;28;20038;-74
2023/05/31 06:08:56;;;;;;;16.58;12.05;;;;;;;;;;10167518;28;20058;-74
2023/05/31 06:13:56;;;;;;;12.45;11.20;;;;;;;;;;10180487;28;20049;-74
2023/05/31 06:18:53;;;;;;;15.07;10.32;;;;;;;;;;10170112;28;20105;-74
2023/05/31 06:23:49;;;;;;;12.07;10.88;;;;;;;;;;10175349;28;20048;-74
2023/05/31 06:28:45;;;;;;;12.30;10.32;;;;;;;;;;10173764;28;20504;-75
2023/05/31 06:33:42;;;;;;;12.38;10.00;;;;;;;;;;10173940;28;20066;-75
2023/05/31 06:38:38;;;;;;;9.82;7.85;;;;;;;;;;10174309;28;20070;-75
2023/05/31 06:43:34;;;;;;;11.65;8.82;;;;;;;;;;10173185;28;20053;-75
2023/05/31 06:48:31;;;;;;;10.90;8.80;;;;;;;;;;10174885;28;20520;-75
2023/05/31 06:53:27;;;;;;;9.05;8.20;;;;;;;;;;10169642;28;20050;-75
2023/05/31 06:58:28;;;;;;;10.85;7.95;;;;;;;;;;10174174;28;20054;-75
2023/05/31 07:03:25;;;;;;;11.75;8.07;;;;;;;;;;10172638;28;20100;-75
2023/05/31 07:08:22;;;;;;;8.32;7.53;;;;;;;;;;10170131;28;20700;-75
2023/05/31 07:13:18;;;;;;;8.80;7.90;;;;;;;;;;10175781;28;21136;-75
2023/05/31 07:18:14;;;;;;;8.07;7.30;;;;;;;;;;10169761;28;20042;-75
2023/05/31 07:23:11;;;;;;;11.40;7.60;;;;;;;;;;10169162;28;20049;-75
2023/05/31 07:28:07;;;;;;;9.70;8.40;;;;;;;;;;10188826;28;20056;-75
2023/05/31 07:33:03;;;;;;;8.20;6.70;;;;;;;;;;10172616;28;20066;-75
2023/05/31 07:38:00;;;;;;;8.13;6.97;;;;;;;;;;10170091;28;20050;-74
2023/05/31 07:42:56;;;;;;;9.80;7.30;;;;;;;;;;10175176;28;20408;-75
2023/05/31 07:47:52;;;;;;;9.88;7.38;;;;;;;;;;10167365;28;20111;-75
2023/05/31 07:52:49;;;;;;;8.73;6.47;;;;;;;;;;10172157;28;20128;-75
2023/05/31 07:57:45;;;;;;;10.60;7.45;;;;;;;;;;10169965;28;20038;-75
2023/05/31 08:02:42;;;;;;;6.78;6.10;;;;;;;;;;10160814;28;20073;-75
2023/05/31 08:07:38;;;;;;;7.82;6.90;;;;;;;;;;10164524;28;20053;-75
2023/05/31 08:12:35;;;;;;;9.07;5.80;;;;;;;;;;10163392;28;20049;-74
2023/05/31 08:17:31;;;;;;;8.02;6.53;;;;;;;;;;10174910;28;20504;-75
2023/05/31 08:22:27;;;;;;;8.45;6.07;;;;;;;;;;10161479;28;20173;-75
2023/05/31 08:27:24;;;;;;;8.40;6.05;;;;;;;;;;10165053;28;20104;-75
2023/05/31 08:32:21;;;;;;;7.70;6.60;;;;;;;;;;10174311;28;20048;-75
2023/05/31 08:37:17;;;;;;;8.48;5.80;;;;;;;;;;10175459;28;20046;-74
2023/05/31 08:42:27;;;;;;;6.70;5.85;;;;;;;;;;10166965;28;20050;-74
2023/05/31 08:47:47;;;;;;;8.57;6.05;;;;;;;;;;10161505;28;20054;-75
2023/05/31 08:52:45;;;;;;;8.48;6.43;;;;;;;;;;10163266;28;20506;-75
2023/05/31 08:57:41;;;;;;;9.43;6.93;;;;;;;;;;10164296;28;20100;-75
2023/05/31 09:02:38;;;;;;;7.63;6.47;;;;;;;;;;10173472;28;20092;-75
2023/05/31 09:07:34;;;;;;;7.55;6.60;;;;;;;;;;10167964;28;20062;-75
2023/05/31 09:12:30;;;;;;;7.32;6.40;;;;;;;;;;10169058;28;20042;-75
2023/05/31 09:17:27;;;;;;;8.65;6.25;;;;;;;;;;10162314;28;20566;-75
2023/05/31 09:22:23;;;;;;;7.15;5.68;;;;;;;;;;10180423;28;20060;-75
2023/05/31 09:27:20;;;;;;;9.35;6.57;;;;;;;;;;10178221;28;20096;-74
2023/05/31 09:32:17;;;;;;;8.27;5.95;;;;;;;;;;10177174;28;20500;-74
2023/05/31 09:37:23;;;;;;;8.32;6.90;;;;;;;;;;10173393;28;20085;-73
2023/05/31 09:42:19;;;;;;;7.43;6.53;;;;;;;;;;10176709;28;20397;-73
2023/05/31 09:47:16;;;;;;;8.30;6.85;;;;;;;;;;10175104;28;20104;-75
2023/05/31 09:52:13;;;;;;;8.35;6.80;;;;;;;;;;10179914;28;20041;-75
2023/05/31 09:57:28;;;;;;;7.78;6.95;;;;;;;;;;10173247;28;20065;-74
2023/05/31 10:02:24;;;;;;;8.95;7.47;;;;;;;;;;10169635;28;20456;-74
2023/05/31 10:07:22;;;;;;;8.15;6.03;;;;;;;;;;10172456;28;20390;-74
2023/05/31 10:12:20;;;;;;;8.05;7.18;;;;;;;;;;10171608;28;20085;-74
2023/05/31 10:17:20;;;;;;;8.40;6.78;;;;;;;;;;10173028;28;20089;-74
2023/05/31 10:22:17;;;;;;;7.70;6.70;;;;;;;;;;10166611;28;20053;-75
2023/05/31 10:27:19;;;;;;;9.68;7.28;;;;;;;;;;10175736;28;20042;-74
2023/05/31 10:32:29;;;;;;;8.15;7.35;;;;;;;;;;10161753;28;20402;-74
2023/05/31 10:37:25;;;;;;;9.68;7.75;;;;;;;;;;10164793;28;20684;-74
2023/05/31 10:42:40;;;;;;;10.30;7.57;;;;;;;;;;10167794;28;20050;-74
2023/05/31 10:47:40;;;;;;;8.07;6.65;;;;;;;;;;10172620;28;20050;-74
2023/05/31 10:52:36;;;;;;;9.38;6.88;;;;;;;;;;10180547;28;20069;-74
2023/05/31 10:57:35;;;;;;;8.50;6.65;;;;;;;;;;10170129;28;20054;-75
2023/05/31 11:02:32;;;;;;;8.27;6.57;;;;;;;;;;10169312;28;20097;-75
2023/05/31 11:07:31;;;;;;;9.32;7.05;;;;;;;;;;10170813;28;20050;-74
2023/05/31 11:12:34;;;;;;;7.28;6.53;;;;;;;;;;10175235;28;20049;-74
2023/05/31 11:17:38;;;;;;;6.85;6.25;;;;;;;;;;10161397;28;20042;-74
2023/05/31 11:22:35;;;;;;;6.95;6.20;;;;;;;;;;10171650;28;20420;-74
2023/05/31 11:27:35;;;;;;;7.75;6.75;;;;;;;;;;10172115;28;20043;-74
2023/05/31 11:32:34;;;;;;;7.50;6.77;;;;;;;;;;10169416;28;20062;-74
2023/05/31 11:37:32;;;;;;;8.68;7.00;;;;;;;;;;10167725;28;20512;-74
2023/05/31 11:42:32;;;;;;;7.85;7.03;;;;;;;;;;10169828;28;20516;-74
2023/05/31 11:47:31;;;;;;;8.48;6.75;;;;;;;;;;10172180;28;20049;-74
2023/05/31 11:52:31;;;;;;;9.15;6.88;;;;;;;;;;10163738;28;20042;-73
2023/05/31 11:57:28;;;;;;;10.15;7.75;;;;;;;;;;10175384;28;20042;-74
2023/05/31 12:02:25;;;;;;;11.40;8.55;;;;;;;;;;10176195;28;20571;-74
2023/05/31 12:07:21;;;;;;;8.30;7.28;;;;;;;;;;10156773;28;20057;-74
2023/05/31 12:12:19;;;;;;;10.05;7.80;;;;;;;;;;10162967;28;20051;-74
2023/05/31 12:17:15;;;;;;;11.57;7.90;;;;;;;;;;10174220;28;20057;-74
2023/05/31 12:22:12;;;;;;;8.93;8.00;;;;;;;;;;10160904;28;20068;-74
2023/05/31 12:27:10;;;;;;;9.63;7.68;;;;;;;;;;10160614;28;20423;-74
2023/05/31 12:32:07;;;;;;;12.50;8.15;;;;;;;;;;10175063;28;20509;-74
2023/05/31 12:37:04;;;;;;;9.27;7.35;;;;;;;;;;10166746;28;20076;-74
2023/05/31 12:42:01;;;;;;;12.70;7.47;;;;;;;;;;10162372;28;20034;-74
2023/05/31 12:47:02;;;;;;;10.35;7.20;;;;;;;;;;10166580;28;20062;-74
2023/05/31 12:52:04;;;;;;;8.35;7.15;;;;;;;;;;10159645;28;20685;-74
2023/05/31 12:57:01;;;;;;;9.50;6.90;;;;;;;;;;10165645;28;20058;-73
2023/05/31 13:01:58;;;;;;;9.02;6.78;;;;;;;;;;10177815;28;20045;-73
2023/05/31 13:06:57;;;;;;;9.13;6.88;;;;;;;;;;10178111;28;20038;-74
2023/05/31 13:11:53;;;;;;;7.70;6.28;;;;;;;;;;10169148;28;20034;-74
2023/05/31 13:16:50;;;;;;;7.07;6.38;;;;;;;;;;10175610;28;20042;-73
2023/05/31 13:21:46;;;;;;;7.47;6.00;;;;;;;;;;10174260;28;20038;-73
2023/05/31 13:26:42;;;;;;;7.00;6.30;;;;;;;;;;10175188;28;20049;-74
2023/05/31 13:31:39;;;;;;;9.02;5.93;;;;;;;;;;10177659;28;20451;-74
2023/05/31 13:36:37;;;;;;;12.20;6.40;;;;;;;;;;10176791;28;21355;-74
2023/05/31 13:41:33;;;;;;;8.20;6.68;;;;;;;;;;10173783;28;20652;-74
2023/05/31 13:46:29;;;;;;;7.85;6.65;;;;;;;;;;10178231;28;20475;-73
2023/05/31 13:51:26;;;;;;;9.15;6.35;;;;;;;;;;10176326;28;20045;-73
2023/05/31 13:56:22;;;;;;;9.15;6.18;;;;;;;;;;10169347;28;20099;-74
2023/05/31 14:01:18;;;;;;;8.50;6.50;;;;;;;;;;10180204;28;20129;-73
2023/05/31 14:06:15;;;;;;;7.72;6.90;;;;;;;;;;10183446;28;20125;-73
2023/05/31 14:11:13;;;;;;;8.45;6.15;;;;;;;;;;10169370;28;20416;-74
2023/05/31 14:16:09;;;;;;;7.05;6.30;;;;;;;;;;10174072;28;20081;-74
2023/05/31 14:21:05;;;;;;;6.68;6.07;;;;;;;;;;10168735;28;20057;-74
2023/05/31 14:26:01;;;;;;;8.85;7.30;;;;;;;;;;10165266;28;20711;-73
2023/05/31 14:30:58;;;;;;;8.60;6.70;;;;;;;;;;10162523;28;20049;-73
2023/05/31 14:35:54;;;;;;;8.85;7.10;;;;;;;;;;10178138;28;20577;-73
2023/05/31 14:40:51;;;;;;;7.90;7.10;;;;;;;;;;10176831;28;20129;-74
2023/05/31 14:45:48;;;;;;;8.63;7.40;;;;;;;;;;10169426;28;20042;-74
2023/05/31 14:50:44;;;;;;;10.35;7.40;;;;;;;;;;10166456;28;20056;-74
2023/05/31 14:55:40;;;;;;;12.90;7.72;;;;;;;;;;10172166;28;20050;-74
2023/05/31 15:00:37;;;;;;;8.93;6.63;;;;;;;;;;10174826;28;20511;-73
2023/05/31 15:05:34;;;;;;;7.95;6.63;;;;;;;;;;10174415;28;20622;-74
2023/05/31 15:10:30;;;;;;;11.25;7.20;;;;;;;;;;10173539;28;20714;-74
2023/05/31 15:15:26;;;;;;;7.88;6.85;;;;;;;;;;10162909;28;20057;-73
2023/05/31 15:20:23;;;;;;;10.73;7.40;;;;;;;;;;10165579;28;20104;-74
2023/05/31 15:25:22;;;;;;;8.55;7.65;;;;;;;;;;10165709;28;20468;-74
2023/05/31 15:30:18;;;;;;;13.13;7.35;;;;;;;;;;10159786;28;20042;-74
2023/05/31 15:35:15;;;;;;;7.38;6.47;;;;;;;;;;10163481;28;20046;-74
2023/05/31 15:40:11;;;;;;;9.25;7.32;;;;;;;;;;10156183;28;20054;-69
2023/05/31 15:45:08;;;;;;;7.70;6.90;;;;;;;;;;10156798;28;20061;-70
2023/05/31 15:50:04;;;;;;;9.73;7.50;;;;;;;;;;10164650;28;20061;-70
2023/05/31 15:55:01;;;;;;;9.57;7.28;;;;;;;;;;10163166;28;20543;-69
2023/05/31 15:59:57;;;;;;;12.50;8.48;;;;;;;;;;10161532;28;20080;-69
2023/05/31 16:04:53;;;;;;;10.32;7.80;;;;;;;;;;10158890;28;20046;-70
2023/05/31 16:09:50;;;;;;;11.75;8.57;;;;;;;;;;10166613;28;20084;-70
2023/05/31 16:14:46;;;;;;;9.75;7.93;;;;;;;;;;10166760;28;20042;-69
2023/05/31 16:19:42;;;;;;;10.15;7.00;;;;;;;;;;10163313;28;20076;-69
2023/05/31 16:24:39;;;;;;;7.35;6.68;;;;;;;;;;10156666;28;20083;-70
2023/05/31 16:29:35;;;;;;;7.95;7.25;;;;;;;;;;10152573;28;20049;-68
2023/05/31 16:34:32;;;;;;;8.55;7.57;;;;;;;;;;10165489;28;20042;-69
2023/05/31 16:39:29;;;;;;;8.30;7.40;;;;;;;;;;10171193;28;20062;-69
2023/05/31 16:44:25;;;;;;;14.18;8.18;;;;;;;;;;10164345;28;20085;-69
2023/05/31 16:49:22;;;;;;;8.77;7.88;;;;;;;;;;10175185;28;20100;-69
2023/05/31 16:54:18;;;;;;;8.10;7.30;;;;;;;;;;10171547;28;20081;-68
2023/05/31 16:59:14;;;;;;;10.35;7.60;;;;;;;;;;10180737;28;20042;-67
2023/05/31 17:04:11;;;;;;;10.52;6.90;;;;;;;;;;10165221;28;20062;-68
2023/05/31 17:09:07;;;;;;;10.60;7.03;;;;;;;;;;10147447;28;20050;-68
2023/05/31 17:14:04;;;;;;;10.05;7.50;;;;;;;;;;10155535;28;20649;-68
2023/05/31 17:19:00;;;;;;;9.43;7.05;;;;;;;;;;10163808;28;20183;-69
2023/05/31 17:23:56;;;;;;;8.68;6.60;;;;;;;;;;10160263;28;20107;-68
2023/05/31 17:28:56;;;;;;;12.15;7.82;;;;;;;;;;10168300;28;20054;-68
2023/05/31 17:33:52;;;;;;;8.77;7.70;;;;;;;;;;10171710;28;20511;-68
2023/05/31 17:38:48;;;;;;;15.43;7.65;;;;;;;;;;10163306;28;20085;-68
2023/05/31 17:43:47;;;;;;;17.10;8.52;;;;;;;;;;10177676;28;20129;-68
2023/05/31 17:48:43;;;;;;;16.13;8.50;;;;;;;;;;10180208;28;20042;-68
2023/05/31 17:53:40;;;;;;;13.68;8.68;;;;;;;;;;10173300;28;20045;-68
2023/05/31 17:58:37;;;;;;;13.35;8.70;;;;;;;;;;10171208;28;20132;-68
2023/05/31 18:03:33;;;;;;;12.07;8.05;;;;;;;;;;10173841;28;20424;-68
2023/05/31 18:08:30;;;;;;;13.55;8.02;;;;;;;;;;10166402;28;20050;-69
2023/05/31 18:13:26;;;;;;;14.98;8.13;;;;;;;;;;10164001;28;20054;-69
2023/05/31 18:18:22;;;;;;;16.08;8.18;;;;;;;;;;10169130;28;20662;-68
2023/05/31 18:23:19;;;;;;;14.95;7.72;;;;;;;;;;10167289;28;20053;-69
2023/05/31 18:28:15;;;;;;;16.17;8.70;;;;;;;;;;10174924;28;20053;-69
2023/05/31 18:33:12;;;;;;;10.40;7.10;;;;;;;;;;10167146;28;20503;-69
2023/05/31 18:38:08;;;;;;;11.75;7.03;;;;;;;;;;10171519;28;20042;-69
2023/05/31 18:43:05;;;;;;;14.95;8.05;;;;;;;;;;10167429;28;20065;-68
2023/05/31 18:48:05;;;;;;;12.65;6.90;;;;;;;;;;10164582;28;20134;-69
2023/05/31 18:53:02;;;;;;;16.17;8.05;;;;;;;;;;10165966;28;20069;-69
2023/05/31 18:57:58;;;;;;;15.45;8.23;;;;;;;;;;10173805;28;20034;-69
2023/05/31 19:02:54;;;;;;;12.48;7.85;;;;;;;;;;10168873;28;20447;-69
2023/05/31 19:07:51;;;;;;;13.43;6.68;;;;;;;;;;10168443;28;20045;-69
2023/05/31 19:12:47;;;;;;;12.20;7.30;;;;;;;;;;10158206;28;20504;-69
2023/05/31 19:17:44;;;;;;;15.68;8.43;;;;;;;;;;10146516;28;20121;-69
2023/05/31 19:22:55;;;;;;;12.65;7.40;;;;;;;;;;10166408;28;20050;-69
2023/05/31 19:27:51;;;;;;;12.57;8.10;;;;;;;;;;10147835;28;20323;-69
2023/05/31 19:32:47;;;;;;;14.32;8.52;;;;;;;;;;10154284;28;20504;-69
2023/05/31 19:37:44;;;;;;;15.73;7.43;;;;;;;;;;10156205;28;20050;-69
2023/05/31 19:42:40;;;;;;;15.02;8.15;;;;;;;;;;10158756;28;20565;-69
2023/05/31 19:47:36;;;;;;;17.33;9.75;;;;;;;;;;10160774;28;20128;-69
2023/05/31 19:52:33;;;;;;;14.02;9.48;;;;;;;;;;10167940;28;20058;-69
2023/05/31 19:57:29;;;;;;;14.45;8.98;;;;;;;;;;10166186;28;20053;-69
2023/05/31 20:02:26;;;;;;;15.98;9.60;;;;;;;;;;10168819;28;20069;-69
2023/05/31 20:07:22;;;;;;;13.45;9.60;;;;;;;;;;10157877;28;20046;-70
2023/05/31 20:12:18;;;;;;;14.25;10.23;;;;;;;;;;10165882;28;20046;-69
2023/05/31 20:17:15;;;;;;;10.82;9.48;;;;;;;;;;10168096;28;20547;-69
2023/05/31 20:22:12;;;;;;;13.52;9.80;;;;;;;;;;10160826;28;20046;-70
2023/05/31 20:27:09;;;;;;;13.93;11.18;;;;;;;;;;10162410;28;20072;-69
2023/05/31 20:32:05;;;;;;;18.85;13.27;;;;;;;;;;10165583;28;20046;-69
2023/05/31 20:37:02;;;;;;;23.27;13.93;;;;;;;;;;10167821;28;20046;-65
2023/05/31 20:41:58;;;;;;;18.85;13.57;;;;;;;;;;10172221;28;20791;-65
2023/05/31 20:46:54;;;;;;;16.60;13.88;;;;;;;;;;10149120;28;20053;-65
2023/05/31 20:51:51;;;;;;;17.58;11.98;;;;;;;;;;10164290;28;20610;-66
2023/05/31 20:56:47;;;;;;;16.30;12.68;;;;;;;;;;10157769;28;20449;-64
2023/05/31 21:01:44;;;;;;;17.50;13.40;;;;;;;;;;10153738;28;20389;-64
2023/05/31 21:06:40;;;;;;;19.70;13.82;;;;;;;;;;10168131;28;20066;-64
2023/05/31 21:11:37;;;;;;;17.30;12.63;;;;;;;;;;10159996;28;20049;-63
2023/05/31 21:16:33;;;;;;;16.58;13.05;;;;;;;;;;10161248;28;20342;-64
2023/05/31 21:21:30;;;;;;;20.05;13.60;;;;;;;;;;10166582;28;20093;-65
2023/05/31 21:26:27;;;;;;;18.98;12.65;;;;;;;;;;10161926;28;20166;-64
2023/05/31 21:31:26;;;;;;;16.63;12.80;;;;;;;;;;10172471;28;20077;-64
2023/05/31 21:36:23;;;;;;;20.50;16.10;;;;;;;;;;10177516;28;20046;-64
2023/05/31 21:41:20;;;;;;;19.90;14.00;;;;;;;;;;10173894;28;20101;-65
2023/05/31 21:46:18;;;;;;;15.95;12.70;;;;;;;;;;10173411;28;20077;-65
2023/05/31 21:51:14;;;;;;;15.57;12.90;;;;;;;;;;10166800;28;20060;-64
2023/05/31 21:56:11;;;;;;;15.73;12.23;;;;;;;;;;10171216;28;20041;-65
2023/05/31 22:01:07;;;;;;;12.40;10.35;;;;;;;;;;10178393;28;20050;-65
2023/05/31 22:06:03;;;;;;;15.80;10.93;;;;;;;;;;10172127;28;20065;-66
2023/05/31 22:11:00;;;;;;;21.02;12.60;;;;;;;;;;10169709;28;20097;-65
2023/05/31 22:15:57;;;;;;;18.48;12.15;;;;;;;;;;10168391;28;20049;-66
2023/05/31 22:20:55;;;;;;;14.43;12.95;;;;;;;;;;10180895;28;20050;-66
2023/05/31 22:25:52;;;;;;;21.77;16.55;;;;;;;;;;10170854;28;20045;-66
2023/05/31 22:30:48;;;;;;;17.58;13.65;;;;;;;;;;10173065;28;20108;-66
2023/05/31 22:35:45;;;;;;;16.92;14.40;;;;;;;;;;10169817;28;20060;-67
2023/05/31 22:40:41;;;;;;;19.38;13.63;;;;;;;;;;10164329;28;20046;-66
2023/05/31 22:45:37;;;;;;;21.75;14.25;;;;;;;;;;10165872;28;20532;-67
2023/05/31 22:50:34;;;;;;;23.35;14.60;;;;;;;;;;10171514;28;20046;-67
2023/05/31 22:55:30;;;;;;;22.27;14.18;;;;;;;;;;10169982;28;20620;-66
2023/05/31 23:00:27;;;;;;;20.30;13.13;;;;;;;;;;10172629;28;20053;-65
2023/05/31 23:05:25;;;;;;;21.40;15.20;;;;;;;;;;10174668;28;20065;-65
2023/05/31 23:10:25;;;;;;;19.63;15.07;;;;;;;;;;10163450;28;20058;-66
2023/05/31 23:15:21;;;;;;;18.85;11.95;;;;;;;;;;10170443;28;20119;-66
2023/05/31 23:20:17;;;;;;;17.73;13.90;;;;;;;;;;10163835;28;20412;-67
2023/05/31 23:25:14;;;;;;;15.68;9.77;;;;;;;;;;10168919;28;20046;-68
2023/05/31 23:30:11;;;;;;;18.05;11.02;;;;;;;;;;10170086;28;20547;-68
2023/05/31 23:35:07;;;;;;;16.15;10.52;;;;;;;;;;10163940;28;20042;-66
2023/05/31 23:40:05;;;;;;;13.73;10.15;;;;;;;;;;10159758;28;20058;-67
2023/05/31 23:45:04;;;;;;;16.35;10.13;;;;;;;;;;10172754;28;20113;-67
2023/05/31 23:50:01;;;;;;;15.75;10.43;;;;;;;;;;10164100;28;20057;-65
2023/05/31 23:55:09;;;;;;;25.42;13.13;;;;;;;;;;10172184;28;20061;-65
